sensor_id;sensor_type;location;lat;lon;timestamp;P1;durP1;ratioP1;P2;durP2;ratioP2
15667;SDS011;7934;48.710;9.024;2024-02-28T00:02:01;29.80;;;18.60;;
15667;SDS011;7934;48.710;9.024;2024-02-28T00:04:28;29.57;;;16.47;;
15667;SDS011;7934;48.710;9.024;2024-02-28T00:06:57;26.37;;;16.57;;
15667;SDS011;7934;48.710;9.024;2024-02-28T00:09:24;25.93;;;17.87;;
15667;SDS011;7934;48.710;9.024;2024-02-28T00:11:52;29.53;;;18.40;;
15667;SDS011;7934;48.710;9.024;2024-02-28T00:14:19;27.27;;;18.00;;
15667;SDS011;7934;48.710;9.024;2024-02-28T00:16:47;32.60;;;19.00;;
15667;SDS011;7934;48.710;9.024;2024-02-28T00:19:15;28.90;;;17.13;;
15667;SDS011;7934;48.710;9.024;2024-02-28T00:21:43;30.03;;;17.63;;
15667;SDS011;7934;48.710;9.024;2024-02-28T00:24:12;29.43;;;18.90;;
15667;SDS011;7934;48.710;9.024;2024-02-28T00:26:41;32.87;;;18.87;;
15667;SDS011;7934;48.710;9.024;2024-02-28T00:29:08;33.83;;;20.20;;
15667;SDS011;7934;48.710;9.024;2024-02-28T00:31:36;34.13;;;19.97;;
15667;SDS011;7934;48.710;9.024;2024-02-28T00:34:03;33.20;;;19.57;;
15667;SDS011;7934;48.710;9.024;2024-02-28T00:36:31;34.73;;;19.30;;
15667;SDS011;7934;48.710;9.024;2024-02-28T00:38:58;31.53;;;19.53;;
15667;SDS011;7934;48.710;9.024;2024-02-28T00:41:27;31.03;;;18.80;;
15667;SDS011;7934;48.710;9.024;2024-02-28T00:43:54;30.50;;;19.40;;
15667;SDS011;7934;48.710;9.024;2024-02-28T00:46:22;40.17;;;20.17;;
15667;SDS011;7934;48.710;9.024;2024-02-28T00:48:49;34.60;;;20.07;;
15667;SDS011;7934;48.710;9.024;2024-02-28T00:51:16;33.37;;;20.20;;
15667;SDS011;7934;48.710;9.024;2024-02-28T00:53:43;36.20;;;20.67;;
15667;SDS011;7934;48.710;9.024;2024-02-28T00:56:11;32.07;;;20.00;;
15667;SDS011;7934;48.710;9.024;2024-02-28T00:58:39;33.53;;;21.20;;
15667;SDS011;7934;48.710;9.024;2024-02-28T01:01:06;34.97;;;19.83;;
15667;SDS011;7934;48.710;9.024;2024-02-28T01:03:33;36.70;;;20.20;;
15667;SDS011;7934;48.710;9.024;2024-02-28T01:06:01;37.17;;;20.77;;
15667;SDS011;7934;48.710;9.024;2024-02-28T01:08:29;42.67;;;21.73;;
15667;SDS011;7934;48.710;9.024;2024-02-28T01:10:56;36.03;;;21.97;;
15667;SDS011;7934;48.710;9.024;2024-02-28T01:13:24;39.77;;;21.07;;
15667;SDS011;7934;48.710;9.024;2024-02-28T01:15:52;39.20;;;21.83;;
15667;SDS011;7934;48.710;9.024;2024-02-28T01:18:19;38.57;;;22.10;;
15667;SDS011;7934;48.710;9.024;2024-02-28T01:20:47;39.17;;;21.77;;
15667;SDS011;7934;48.710;9.024;2024-02-28T01:23:15;42.37;;;21.97;;
15667;SDS011;7934;48.710;9.024;2024-02-28T01:25:42;39.03;;;22.33;;
15667;SDS011;7934;48.710;9.024;2024-02-28T01:28:10;35.27;;;21.87;;
15667;SDS011;7934;48.710;9.024;2024-02-28T01:30:37;42.33;;;23.00;;
15667;SDS011;7934;48.710;9.024;2024-02-28T01:33:06;37.33;;;21.10;;
15667;SDS011;7934;48.710;9.024;2024-02-28T01:35:34;37.30;;;22.17;;
15667;SDS011;7934;48.710;9.024;2024-02-28T01:38:02;40.33;;;21.87;;
15667;SDS011;7934;48.710;9.024;2024-02-28T01:40:30;35.47;;;20.87;;
15667;SDS011;7934;48.710;9.024;2024-02-28T01:43:02;36.10;;;21.33;;
15667;SDS011;7934;48.710;9.024;2024-02-28T01:45:29;36.13;;;21.40;;
15667;SDS011;7934;48.710;9.024;2024-02-28T01:47:56;30.77;;;18.90;;
15667;SDS011;7934;48.710;9.024;2024-02-28T01:50:25;32.03;;;19.97;;
15667;SDS011;7934;48.710;9.024;2024-02-28T01:52:52;35.47;;;20.57;;
15667;SDS011;7934;48.710;9.024;2024-02-28T01:55:20;38.93;;;20.80;;
15667;SDS011;7934;48.710;9.024;2024-02-28T01:57:47;39.10;;;21.03;;
15667;SDS011;7934;48.710;9.024;2024-02-28T02:00:14;35.37;;;22.10;;
15667;SDS011;7934;48.710;9.024;2024-02-28T02:02:42;33.37;;;19.57;;
15667;SDS011;7934;48.710;9.024;2024-02-28T02:05:10;33.27;;;19.83;;
15667;SDS011;7934;48.710;9.024;2024-02-28T02:07:41;39.27;;;22.00;;
15667;SDS011;7934;48.710;9.024;2024-02-28T02:10:08;37.43;;;21.57;;
15667;SDS011;7934;48.710;9.024;2024-02-28T02:12:37;37.10;;;20.57;;
15667;SDS011;7934;48.710;9.024;2024-02-28T02:15:04;34.27;;;20.27;;
15667;SDS011;7934;48.710;9.024;2024-02-28T02:17:32;33.67;;;19.27;;
15667;SDS011;7934;48.710;9.024;2024-02-28T02:19:59;32.43;;;20.13;;
15667;SDS011;7934;48.710;9.024;2024-02-28T02:24:58;30.97;;;19.40;;
15667;SDS011;7934;48.710;9.024;2024-02-28T02:27:25;33.20;;;23.13;;
15667;SDS011;7934;48.710;9.024;2024-02-28T02:29:53;32.73;;;20.33;;
15667;SDS011;7934;48.710;9.024;2024-02-28T02:32:20;33.17;;;19.63;;
15667;SDS011;7934;48.710;9.024;2024-02-28T02:34:47;28.80;;;18.30;;
15667;SDS011;7934;48.710;9.024;2024-02-28T02:37:14;34.03;;;19.90;;
15667;SDS011;7934;48.710;9.024;2024-02-28T02:39:41;30.33;;;18.70;;
15667;SDS011;7934;48.710;9.024;2024-02-28T02:42:10;28.30;;;18.60;;
15667;SDS011;7934;48.710;9.024;2024-02-28T02:44:40;31.13;;;18.77;;
15667;SDS011;7934;48.710;9.024;2024-02-28T02:47:07;29.23;;;18.63;;
15667;SDS011;7934;48.710;9.024;2024-02-28T02:49:41;34.20;;;19.03;;
15667;SDS011;7934;48.710;9.024;2024-02-28T02:52:09;30.13;;;19.37;;
15667;SDS011;7934;48.710;9.024;2024-02-28T02:54:37;31.63;;;19.87;;
15667;SDS011;7934;48.710;9.024;2024-02-28T02:57:04;33.30;;;19.77;;
15667;SDS011;7934;48.710;9.024;2024-02-28T02:59:33;31.77;;;19.17;;
15667;SDS011;7934;48.710;9.024;2024-02-28T03:02:00;33.50;;;19.73;;
15667;SDS011;7934;48.710;9.024;2024-02-28T03:04:29;33.67;;;19.37;;
15667;SDS011;7934;48.710;9.024;2024-02-28T03:06:58;30.27;;;17.90;;
15667;SDS011;7934;48.710;9.024;2024-02-28T03:09:25;35.17;;;20.30;;
15667;SDS011;7934;48.710;9.024;2024-02-28T03:11:53;30.60;;;18.70;;
15667;SDS011;7934;48.710;9.024;2024-02-28T03:14:20;36.13;;;19.40;;
15667;SDS011;7934;48.710;9.024;2024-02-28T03:16:52;30.97;;;18.50;;
15667;SDS011;7934;48.710;9.024;2024-02-28T03:19:19;27.93;;;17.93;;
15667;SDS011;7934;48.710;9.024;2024-02-28T03:21:47;27.77;;;17.83;;
15667;SDS011;7934;48.710;9.024;2024-02-28T03:24:17;33.43;;;19.83;;
15667;SDS011;7934;48.710;9.024;2024-02-28T03:26:44;30.47;;;18.90;;
15667;SDS011;7934;48.710;9.024;2024-02-28T03:29:11;32.13;;;18.80;;
15667;SDS011;7934;48.710;9.024;2024-02-28T03:31:38;29.53;;;19.00;;
15667;SDS011;7934;48.710;9.024;2024-02-28T03:34:08;35.40;;;19.77;;
15667;SDS011;7934;48.710;9.024;2024-02-28T03:36:36;32.77;;;18.93;;
15667;SDS011;7934;48.710;9.024;2024-02-28T03:39:04;32.70;;;19.47;;
15667;SDS011;7934;48.710;9.024;2024-02-28T03:41:31;31.87;;;19.17;;
15667;SDS011;7934;48.710;9.024;2024-02-28T03:43:59;30.33;;;18.40;;
15667;SDS011;7934;48.710;9.024;2024-02-28T03:46:26;36.00;;;20.10;;
15667;SDS011;7934;48.710;9.024;2024-02-28T03:48:54;35.33;;;19.43;;
15667;SDS011;7934;48.710;9.024;2024-02-28T03:51:23;32.00;;;19.17;;
15667;SDS011;7934;48.710;9.024;2024-02-28T03:53:51;29.70;;;19.07;;
15667;SDS011;7934;48.710;9.024;2024-02-28T03:56:21;31.03;;;19.13;;
15667;SDS011;7934;48.710;9.024;2024-02-28T03:58:50;32.03;;;17.97;;
15667;SDS011;7934;48.710;9.024;2024-02-28T04:01:17;26.93;;;17.23;;
15667;SDS011;7934;48.710;9.024;2024-02-28T04:03:45;32.10;;;19.87;;
15667;SDS011;7934;48.710;9.024;2024-02-28T04:06:13;29.30;;;18.80;;
15667;SDS011;7934;48.710;9.024;2024-02-28T04:08:43;31.57;;;19.10;;
15667;SDS011;7934;48.710;9.024;2024-02-28T04:11:10;33.87;;;19.37;;
15667;SDS011;7934;48.710;9.024;2024-02-28T04:14:17;27.47;;;18.50;;
15667;SDS011;7934;48.710;9.024;2024-02-28T04:16:30;29.13;;;18.90;;
15667;SDS011;7934;48.710;9.024;2024-02-28T04:18:58;33.63;;;19.13;;
15667;SDS011;7934;48.710;9.024;2024-02-28T04:21:26;30.67;;;18.57;;
15667;SDS011;7934;48.710;9.024;2024-02-28T04:23:55;31.17;;;18.73;;
15667;SDS011;7934;48.710;9.024;2024-02-28T04:26:22;31.20;;;18.33;;
15667;SDS011;7934;48.710;9.024;2024-02-28T04:28:49;32.97;;;19.00;;
15667;SDS011;7934;48.710;9.024;2024-02-28T04:31:16;29.63;;;18.80;;
15667;SDS011;7934;48.710;9.024;2024-02-28T04:33:44;29.60;;;18.27;;
15667;SDS011;7934;48.710;9.024;2024-02-28T04:36:11;33.80;;;19.07;;
15667;SDS011;7934;48.710;9.024;2024-02-28T04:38:41;29.70;;;19.07;;
15667;SDS011;7934;48.710;9.024;2024-02-28T04:43:52;34.20;;;17.90;;
15667;SDS011;7934;48.710;9.024;2024-02-28T04:46:19;29.83;;;18.33;;
15667;SDS011;7934;48.710;9.024;2024-02-28T04:48:46;28.47;;;18.00;;
15667;SDS011;7934;48.710;9.024;2024-02-28T04:51:15;31.93;;;18.53;;
15667;SDS011;7934;48.710;9.024;2024-02-28T04:53:42;28.70;;;17.97;;
15667;SDS011;7934;48.710;9.024;2024-02-28T04:56:09;34.63;;;18.60;;
15667;SDS011;7934;48.710;9.024;2024-02-28T04:58:41;31.13;;;18.17;;
15667;SDS011;7934;48.710;9.024;2024-02-28T05:01:09;30.07;;;17.67;;
15667;SDS011;7934;48.710;9.024;2024-02-28T05:03:38;31.77;;;19.33;;
15667;SDS011;7934;48.710;9.024;2024-02-28T05:06:05;31.30;;;18.90;;
15667;SDS011;7934;48.710;9.024;2024-02-28T05:08:34;32.17;;;19.20;;
15667;SDS011;7934;48.710;9.024;2024-02-28T05:11:17;32.53;;;18.80;;
15667;SDS011;7934;48.710;9.024;2024-02-28T05:13:44;33.70;;;19.83;;
15667;SDS011;7934;48.710;9.024;2024-02-28T05:16:14;29.20;;;19.33;;
15667;SDS011;7934;48.710;9.024;2024-02-28T05:18:41;36.23;;;20.83;;
15667;SDS011;7934;48.710;9.024;2024-02-28T05:21:09;33.03;;;19.67;;
15667;SDS011;7934;48.710;9.024;2024-02-28T05:23:37;29.03;;;18.57;;
15667;SDS011;7934;48.710;9.024;2024-02-28T05:26:04;35.90;;;18.37;;
15667;SDS011;7934;48.710;9.024;2024-02-28T05:28:32;27.13;;;17.77;;
15667;SDS011;7934;48.710;9.024;2024-02-28T05:30:59;27.70;;;18.37;;
15667;SDS011;7934;48.710;9.024;2024-02-28T05:33:29;29.10;;;18.90;;
15667;SDS011;7934;48.710;9.024;2024-02-28T05:35:56;29.63;;;17.83;;
15667;SDS011;7934;48.710;9.024;2024-02-28T05:38:24;30.53;;;18.30;;
15667;SDS011;7934;48.710;9.024;2024-02-28T05:40:52;28.47;;;18.23;;
15667;SDS011;7934;48.710;9.024;2024-02-28T05:43:20;32.10;;;18.37;;
15667;SDS011;7934;48.710;9.024;2024-02-28T05:45:47;28.73;;;19.20;;
15667;SDS011;7934;48.710;9.024;2024-02-28T05:48:14;27.80;;;18.50;;
15667;SDS011;7934;48.710;9.024;2024-02-28T05:50:46;30.83;;;18.37;;
15667;SDS011;7934;48.710;9.024;2024-02-28T05:53:13;29.23;;;18.20;;
15667;SDS011;7934;48.710;9.024;2024-02-28T05:55:40;25.40;;;17.97;;
15667;SDS011;7934;48.710;9.024;2024-02-28T05:58:08;28.37;;;18.20;;
15667;SDS011;7934;48.710;9.024;2024-02-28T06:00:35;28.30;;;18.77;;
15667;SDS011;7934;48.710;9.024;2024-02-28T06:03:03;32.27;;;18.47;;
15667;SDS011;7934;48.710;9.024;2024-02-28T06:05:30;28.07;;;17.97;;
15667;SDS011;7934;48.710;9.024;2024-02-28T06:07:59;28.83;;;18.13;;
15667;SDS011;7934;48.710;9.024;2024-02-28T06:10:26;29.97;;;18.97;;
15667;SDS011;7934;48.710;9.024;2024-02-28T06:12:53;26.23;;;16.97;;
15667;SDS011;7934;48.710;9.024;2024-02-28T06:15:21;33.43;;;18.93;;
15667;SDS011;7934;48.710;9.024;2024-02-28T06:17:48;29.30;;;17.47;;
15667;SDS011;7934;48.710;9.024;2024-02-28T06:20:15;27.87;;;17.83;;
15667;SDS011;7934;48.710;9.024;2024-02-28T06:22:43;30.93;;;18.20;;
15667;SDS011;7934;48.710;9.024;2024-02-28T06:25:12;26.97;;;17.17;;
15667;SDS011;7934;48.710;9.024;2024-02-28T06:27:44;29.97;;;17.87;;
15667;SDS011;7934;48.710;9.024;2024-02-28T06:30:11;32.17;;;18.90;;
15667;SDS011;7934;48.710;9.024;2024-02-28T06:32:41;34.37;;;19.67;;
15667;SDS011;7934;48.710;9.024;2024-02-28T06:35:17;32.20;;;19.47;;
15667;SDS011;7934;48.710;9.024;2024-02-28T06:37:46;31.63;;;18.70;;
15667;SDS011;7934;48.710;9.024;2024-02-28T06:40:16;34.67;;;19.27;;
15667;SDS011;7934;48.710;9.024;2024-02-28T06:42:44;32.83;;;19.50;;
15667;SDS011;7934;48.710;9.024;2024-02-28T06:45:11;34.00;;;18.80;;
15667;SDS011;7934;48.710;9.024;2024-02-28T06:47:45;29.67;;;18.83;;
15667;SDS011;7934;48.710;9.024;2024-02-28T06:50:12;35.33;;;19.23;;
15667;SDS011;7934;48.710;9.024;2024-02-28T06:52:40;29.97;;;19.03;;
15667;SDS011;7934;48.710;9.024;2024-02-28T06:55:08;34.13;;;19.37;;
15667;SDS011;7934;48.710;9.024;2024-02-28T06:57:39;31.83;;;19.67;;
15667;SDS011;7934;48.710;9.024;2024-02-28T07:00:07;28.00;;;18.53;;
15667;SDS011;7934;48.710;9.024;2024-02-28T07:02:39;28.27;;;18.17;;
15667;SDS011;7934;48.710;9.024;2024-02-28T07:05:07;35.23;;;17.73;;
15667;SDS011;7934;48.710;9.024;2024-02-28T07:07:34;25.97;;;16.07;;
15667;SDS011;7934;48.710;9.024;2024-02-28T07:10:02;24.83;;;15.87;;
15667;SDS011;7934;48.710;9.024;2024-02-28T07:12:35;24.40;;;14.33;;
15667;SDS011;7934;48.710;9.024;2024-02-28T07:15:06;21.40;;;13.43;;
15667;SDS011;7934;48.710;9.024;2024-02-28T07:17:33;16.87;;;12.40;;
15667;SDS011;7934;48.710;9.024;2024-02-28T07:20:00;21.10;;;12.87;;
15667;SDS011;7934;48.710;9.024;2024-02-28T07:22:27;15.97;;;12.27;;
15667;SDS011;7934;48.710;9.024;2024-02-28T07:24:55;18.87;;;13.13;;
15667;SDS011;7934;48.710;9.024;2024-02-28T07:27:22;19.33;;;13.03;;
15667;SDS011;7934;48.710;9.024;2024-02-28T07:29:49;17.93;;;13.00;;
15667;SDS011;7934;48.710;9.024;2024-02-28T07:32:21;18.40;;;13.10;;
15667;SDS011;7934;48.710;9.024;2024-02-28T07:34:48;22.33;;;14.30;;
15667;SDS011;7934;48.710;9.024;2024-02-28T07:37:15;17.83;;;12.43;;
15667;SDS011;7934;48.710;9.024;2024-02-28T07:39:42;17.30;;;11.77;;
15667;SDS011;7934;48.710;9.024;2024-02-28T07:42:10;18.93;;;13.00;;
15667;SDS011;7934;48.710;9.024;2024-02-28T07:44:37;18.50;;;13.03;;
15667;SDS011;7934;48.710;9.024;2024-02-28T07:47:05;18.93;;;13.27;;
15667;SDS011;7934;48.710;9.024;2024-02-28T07:49:34;21.00;;;12.67;;
15667;SDS011;7934;48.710;9.024;2024-02-28T07:52:02;24.80;;;12.93;;
15667;SDS011;7934;48.710;9.024;2024-02-28T07:54:29;16.50;;;12.17;;
15667;SDS011;7934;48.710;9.024;2024-02-28T07:57:00;17.53;;;12.33;;
15667;SDS011;7934;48.710;9.024;2024-02-28T07:59:38;16.30;;;11.23;;
15667;SDS011;7934;48.710;9.024;2024-02-28T08:02:07;14.87;;;11.70;;
15667;SDS011;7934;48.710;9.024;2024-02-28T08:04:42;17.30;;;12.13;;
15667;SDS011;7934;48.710;9.024;2024-02-28T08:07:09;16.73;;;12.00;;
15667;SDS011;7934;48.710;9.024;2024-02-28T08:09:39;15.00;;;12.00;;
15667;SDS011;7934;48.710;9.024;2024-02-28T08:12:06;18.27;;;12.27;;
15667;SDS011;7934;48.710;9.024;2024-02-28T08:14:34;17.27;;;11.70;;
15667;SDS011;7934;48.710;9.024;2024-02-28T08:17:01;14.00;;;10.63;;
15667;SDS011;7934;48.710;9.024;2024-02-28T08:19:28;16.17;;;11.07;;
15667;SDS011;7934;48.710;9.024;2024-02-28T08:21:57;15.50;;;10.97;;
15667;SDS011;7934;48.710;9.024;2024-02-28T08:24:25;14.57;;;11.10;;
15667;SDS011;7934;48.710;9.024;2024-02-28T08:26:54;17.43;;;12.13;;
15667;SDS011;7934;48.710;9.024;2024-02-28T08:29:21;14.20;;;10.53;;
15667;SDS011;7934;48.710;9.024;2024-02-28T08:31:49;12.77;;;10.47;;
15667;SDS011;7934;48.710;9.024;2024-02-28T08:34:16;14.40;;;10.40;;
15667;SDS011;7934;48.710;9.024;2024-02-28T08:36:43;14.43;;;10.50;;
15667;SDS011;7934;48.710;9.024;2024-02-28T08:39:13;15.30;;;11.03;;
15667;SDS011;7934;48.710;9.024;2024-02-28T08:41:42;16.10;;;11.93;;
15667;SDS011;7934;48.710;9.024;2024-02-28T08:44:10;14.80;;;10.93;;
15667;SDS011;7934;48.710;9.024;2024-02-28T08:46:38;15.37;;;10.63;;
15667;SDS011;7934;48.710;9.024;2024-02-28T08:49:13;14.07;;;10.83;;
15667;SDS011;7934;48.710;9.024;2024-02-28T08:51:48;16.60;;;10.63;;
15667;SDS011;7934;48.710;9.024;2024-02-28T08:54:31;13.93;;;10.37;;
15667;SDS011;7934;48.710;9.024;2024-02-28T08:56:58;16.93;;;11.87;;
15667;SDS011;7934;48.710;9.024;2024-02-28T08:59:35;14.00;;;10.53;;
15667;SDS011;7934;48.710;9.024;2024-02-28T09:02:05;13.30;;;10.80;;
15667;SDS011;7934;48.710;9.024;2024-02-28T09:04:32;16.73;;;12.43;;
15667;SDS011;7934;48.710;9.024;2024-02-28T09:07:00;18.47;;;13.10;;
15667;SDS011;7934;48.710;9.024;2024-02-28T09:09:28;16.77;;;12.47;;
15667;SDS011;7934;48.710;9.024;2024-02-28T09:11:59;15.53;;;11.23;;
15667;SDS011;7934;48.710;9.024;2024-02-28T09:14:29;14.43;;;11.10;;
15667;SDS011;7934;48.710;9.024;2024-02-28T09:16:58;15.20;;;11.13;;
15667;SDS011;7934;48.710;9.024;2024-02-28T09:19:28;14.27;;;11.23;;
15667;SDS011;7934;48.710;9.024;2024-02-28T09:21:55;17.03;;;11.07;;
15667;SDS011;7934;48.710;9.024;2024-02-28T09:24:22;17.93;;;11.50;;
15667;SDS011;7934;48.710;9.024;2024-02-28T09:26:51;13.93;;;10.63;;
15667;SDS011;7934;48.710;9.024;2024-02-28T09:29:24;17.23;;;11.57;;
15667;SDS011;7934;48.710;9.024;2024-02-28T09:31:54;14.27;;;10.60;;
15667;SDS011;7934;48.710;9.024;2024-02-28T09:34:22;14.57;;;10.87;;
15667;SDS011;7934;48.710;9.024;2024-02-28T09:36:49;14.10;;;10.93;;
15667;SDS011;7934;48.710;9.024;2024-02-28T09:39:16;17.57;;;12.47;;
15667;SDS011;7934;48.710;9.024;2024-02-28T09:41:46;14.60;;;11.83;;
15667;SDS011;7934;48.710;9.024;2024-02-28T09:44:19;14.57;;;11.17;;
15667;SDS011;7934;48.710;9.024;2024-02-28T09:46:48;16.53;;;11.10;;
15667;SDS011;7934;48.710;9.024;2024-02-28T09:49:19;17.43;;;11.93;;
15667;SDS011;7934;48.710;9.024;2024-02-28T09:51:48;15.37;;;11.47;;
15667;SDS011;7934;48.710;9.024;2024-02-28T09:54:19;15.30;;;11.43;;
15667;SDS011;7934;48.710;9.024;2024-02-28T09:56:49;20.60;;;12.33;;
15667;SDS011;7934;48.710;9.024;2024-02-28T09:59:19;18.87;;;12.53;;
15667;SDS011;7934;48.710;9.024;2024-02-28T10:01:49;19.57;;;12.63;;
15667;SDS011;7934;48.710;9.024;2024-02-28T10:04:20;17.57;;;12.87;;
15667;SDS011;7934;48.710;9.024;2024-02-28T10:06:49;20.33;;;12.70;;
15667;SDS011;7934;48.710;9.024;2024-02-28T10:09:16;16.27;;;12.13;;
15667;SDS011;7934;48.710;9.024;2024-02-28T10:11:44;21.97;;;13.17;;
15667;SDS011;7934;48.710;9.024;2024-02-28T10:14:16;15.63;;;12.13;;
15667;SDS011;7934;48.710;9.024;2024-02-28T10:16:46;15.17;;;11.63;;
15667;SDS011;7934;48.710;9.024;2024-02-28T10:19:14;18.80;;;12.73;;
15667;SDS011;7934;48.710;9.024;2024-02-28T10:21:41;17.60;;;12.73;;
15667;SDS011;7934;48.710;9.024;2024-02-28T10:24:11;16.67;;;12.03;;
15667;SDS011;7934;48.710;9.024;2024-02-28T10:26:42;19.93;;;12.03;;
15667;SDS011;7934;48.710;9.024;2024-02-28T10:29:10;12.40;;;10.63;;
15667;SDS011;7934;48.710;9.024;2024-02-28T10:31:38;18.13;;;13.10;;
15667;SDS011;7934;48.710;9.024;2024-02-28T10:34:06;16.27;;;11.43;;
15667;SDS011;7934;48.710;9.024;2024-02-28T10:36:34;14.17;;;11.43;;
15667;SDS011;7934;48.710;9.024;2024-02-28T10:39:16;18.17;;;12.85;;
15667;SDS011;7934;48.710;9.024;2024-02-28T10:41:47;16.23;;;12.17;;
15667;SDS011;7934;48.710;9.024;2024-02-28T10:44:15;17.70;;;12.60;;
15667;SDS011;7934;48.710;9.024;2024-02-28T10:46:43;15.70;;;11.57;;
15667;SDS011;7934;48.710;9.024;2024-02-28T10:49:13;16.23;;;12.80;;
15667;SDS011;7934;48.710;9.024;2024-02-28T10:51:41;17.63;;;11.77;;
15667;SDS011;7934;48.710;9.024;2024-02-28T10:54:16;18.40;;;12.40;;
15667;SDS011;7934;48.710;9.024;2024-02-28T10:56:43;18.50;;;12.90;;
15667;SDS011;7934;48.710;9.024;2024-02-28T10:59:10;16.73;;;11.60;;
15667;SDS011;7934;48.710;9.024;2024-02-28T11:01:37;17.70;;;12.50;;
15667;SDS011;7934;48.710;9.024;2024-02-28T11:04:07;13.87;;;12.03;;
15667;SDS011;7934;48.710;9.024;2024-02-28T11:06:46;18.33;;;13.07;;
15667;SDS011;7934;48.710;9.024;2024-02-28T11:09:18;17.57;;;12.70;;
15667;SDS011;7934;48.710;9.024;2024-02-28T11:11:50;17.47;;;12.90;;
15667;SDS011;7934;48.710;9.024;2024-02-28T11:14:18;18.40;;;13.63;;
15667;SDS011;7934;48.710;9.024;2024-02-28T11:17:00;18.77;;;12.27;;
15667;SDS011;7934;48.710;9.024;2024-02-28T11:19:28;15.27;;;11.73;;
15667;SDS011;7934;48.710;9.024;2024-02-28T11:21:59;17.43;;;12.43;;
15667;SDS011;7934;48.710;9.024;2024-02-28T11:24:29;16.27;;;12.03;;
15667;SDS011;7934;48.710;9.024;2024-02-28T11:26:56;17.17;;;12.57;;
15667;SDS011;7934;48.710;9.024;2024-02-28T11:29:24;17.13;;;12.37;;
15667;SDS011;7934;48.710;9.024;2024-02-28T11:31:52;19.03;;;13.20;;
15667;SDS011;7934;48.710;9.024;2024-02-28T11:34:20;17.80;;;13.10;;
15667;SDS011;7934;48.710;9.024;2024-02-28T11:36:48;17.03;;;12.70;;
15667;SDS011;7934;48.710;9.024;2024-02-28T11:39:17;18.37;;;12.70;;
15667;SDS011;7934;48.710;9.024;2024-02-28T11:41:46;19.67;;;12.63;;
15667;SDS011;7934;48.710;9.024;2024-02-28T11:44:14;17.33;;;12.67;;
15667;SDS011;7934;48.710;9.024;2024-02-28T11:46:45;18.87;;;12.80;;
15667;SDS011;7934;48.710;9.024;2024-02-28T11:49:12;17.53;;;12.57;;
15667;SDS011;7934;48.710;9.024;2024-02-28T11:51:40;19.73;;;14.43;;
15667;SDS011;7934;48.710;9.024;2024-02-28T11:54:08;20.43;;;13.60;;
15667;SDS011;7934;48.710;9.024;2024-02-28T11:56:37;20.30;;;13.50;;
15667;SDS011;7934;48.710;9.024;2024-02-28T11:59:05;19.03;;;13.90;;
15667;SDS011;7934;48.710;9.024;2024-02-28T12:01:33;19.03;;;14.10;;
15667;SDS011;7934;48.710;9.024;2024-02-28T12:04:01;17.67;;;13.33;;
15667;SDS011;7934;48.710;9.024;2024-02-28T12:06:30;20.23;;;13.47;;
15667;SDS011;7934;48.710;9.024;2024-02-28T12:08:58;23.67;;;15.47;;
15667;SDS011;7934;48.710;9.024;2024-02-28T12:11:25;24.83;;;16.00;;
15667;SDS011;7934;48.710;9.024;2024-02-28T12:13:57;25.47;;;15.07;;
15667;SDS011;7934;48.710;9.024;2024-02-28T12:16:26;20.17;;;14.50;;
15667;SDS011;7934;48.710;9.024;2024-02-28T12:18:54;18.83;;;13.97;;
15667;SDS011;7934;48.710;9.024;2024-02-28T12:21:22;22.00;;;14.57;;
15667;SDS011;7934;48.710;9.024;2024-02-28T12:23:50;23.13;;;15.17;;
15667;SDS011;7934;48.710;9.024;2024-02-28T12:26:20;22.33;;;16.03;;
15667;SDS011;7934;48.710;9.024;2024-02-28T12:28:47;22.83;;;15.60;;
15667;SDS011;7934;48.710;9.024;2024-02-28T12:31:16;20.40;;;13.37;;
15667;SDS011;7934;48.710;9.024;2024-02-28T12:33:46;24.02;;;15.68;;
15667;SDS011;7934;48.710;9.024;2024-02-28T12:36:13;22.20;;;14.43;;
15667;SDS011;7934;48.710;9.024;2024-02-28T12:38:41;22.40;;;14.50;;
15667;SDS011;7934;48.710;9.024;2024-02-28T12:41:08;27.53;;;17.50;;
15667;SDS011;7934;48.710;9.024;2024-02-28T12:43:35;27.53;;;16.63;;
15667;SDS011;7934;48.710;9.024;2024-02-28T12:46:04;25.97;;;15.57;;
15667;SDS011;7934;48.710;9.024;2024-02-28T12:48:36;23.60;;;15.43;;
15667;SDS011;7934;48.710;9.024;2024-02-28T12:51:05;24.23;;;15.33;;
15667;SDS011;7934;48.710;9.024;2024-02-28T12:53:33;24.63;;;16.60;;
15667;SDS011;7934;48.710;9.024;2024-02-28T12:56:12;24.07;;;15.50;;
15667;SDS011;7934;48.710;9.024;2024-02-28T12:58:39;20.57;;;14.33;;
15667;SDS011;7934;48.710;9.024;2024-02-28T13:01:07;24.93;;;15.97;;
15667;SDS011;7934;48.710;9.024;2024-02-28T13:03:36;30.03;;;14.87;;
15667;SDS011;7934;48.710;9.024;2024-02-28T13:06:04;26.33;;;16.40;;
15667;SDS011;7934;48.710;9.024;2024-02-28T13:08:32;24.90;;;16.00;;
15667;SDS011;7934;48.710;9.024;2024-02-28T13:10:59;20.90;;;14.63;;
15667;SDS011;7934;48.710;9.024;2024-02-28T13:13:26;21.50;;;15.60;;
15667;SDS011;7934;48.710;9.024;2024-02-28T13:15:53;22.73;;;15.03;;
15667;SDS011;7934;48.710;9.024;2024-02-28T13:18:21;23.07;;;15.53;;
15667;SDS011;7934;48.710;9.024;2024-02-28T13:20:50;24.57;;;15.20;;
15667;SDS011;7934;48.710;9.024;2024-02-28T13:23:17;23.83;;;15.57;;
15667;SDS011;7934;48.710;9.024;2024-02-28T13:25:44;22.80;;;14.97;;
15667;SDS011;7934;48.710;9.024;2024-02-28T13:28:11;29.17;;;15.93;;
15667;SDS011;7934;48.710;9.024;2024-02-28T13:30:39;28.90;;;16.27;;
15667;SDS011;7934;48.710;9.024;2024-02-28T13:33:06;27.53;;;16.37;;
15667;SDS011;7934;48.710;9.024;2024-02-28T13:35:35;28.10;;;16.60;;
15667;SDS011;7934;48.710;9.024;2024-02-28T13:38:05;24.70;;;16.00;;
15667;SDS011;7934;48.710;9.024;2024-02-28T13:40:32;22.53;;;15.00;;
15667;SDS011;7934;48.710;9.024;2024-02-28T13:43:02;29.37;;;17.10;;
15667;SDS011;7934;48.710;9.024;2024-02-28T13:45:29;21.23;;;14.47;;
15667;SDS011;7934;48.710;9.024;2024-02-28T13:47:56;21.30;;;14.97;;
15667;SDS011;7934;48.710;9.024;2024-02-28T13:50:24;23.47;;;15.70;;
15667;SDS011;7934;48.710;9.024;2024-02-28T13:52:56;27.23;;;16.60;;
15667;SDS011;7934;48.710;9.024;2024-02-28T13:55:25;25.10;;;15.90;;
15667;SDS011;7934;48.710;9.024;2024-02-28T13:57:52;24.07;;;15.67;;
15667;SDS011;7934;48.710;9.024;2024-02-28T14:00:20;26.10;;;16.27;;
15667;SDS011;7934;48.710;9.024;2024-02-28T14:02:48;20.73;;;15.17;;
15667;SDS011;7934;48.710;9.024;2024-02-28T14:05:16;22.53;;;18.20;;
15667;SDS011;7934;48.710;9.024;2024-02-28T14:07:43;30.97;;;19.50;;
15667;SDS011;7934;48.710;9.024;2024-02-28T14:10:11;25.98;;;18.35;;
15667;SDS011;7934;48.710;9.024;2024-02-28T14:12:54;24.10;;;16.30;;
15667;SDS011;7934;48.710;9.024;2024-02-28T14:15:23;23.63;;;15.55;;
15667;SDS011;7934;48.710;9.024;2024-02-28T14:17:50;26.90;;;15.90;;
15667;SDS011;7934;48.710;9.024;2024-02-28T14:20:18;21.30;;;14.43;;
15667;SDS011;7934;48.710;9.024;2024-02-28T14:22:46;26.07;;;15.53;;
15667;SDS011;7934;48.710;9.024;2024-02-28T14:25:14;23.43;;;16.03;;
15667;SDS011;7934;48.710;9.024;2024-02-28T14:27:44;22.83;;;15.47;;
15667;SDS011;7934;48.710;9.024;2024-02-28T14:30:14;21.30;;;14.93;;
15667;SDS011;7934;48.710;9.024;2024-02-28T14:32:42;22.63;;;14.97;;
15667;SDS011;7934;48.710;9.024;2024-02-28T14:35:10;22.50;;;15.03;;
15667;SDS011;7934;48.710;9.024;2024-02-28T14:37:38;24.20;;;16.40;;
15667;SDS011;7934;48.710;9.024;2024-02-28T14:40:06;26.77;;;15.97;;
15667;SDS011;7934;48.710;9.024;2024-02-28T14:42:36;23.37;;;15.23;;
15667;SDS011;7934;48.710;9.024;2024-02-28T14:45:04;19.67;;;13.67;;
15667;SDS011;7934;48.710;9.024;2024-02-28T14:47:33;24.03;;;15.33;;